Terminal Aerodrome Forecast
Issued by NWS Kansas City/Pleasant Hill, MO

Home | Current Version | Previous Version | Text Only | Print | Product List | Glossary On
Versions: 1 2 3 4 5 6 7 8 9 10 11 12 13 14
000
FTUS43 KEAX 261100
TAFMCI
TAF
KMCI 261120Z 2612/2712 VRB05KT P6SM BKN130
      TEMPO 2612/2613 34013G21KT BKN015
     FM261900 11008KT P6SM SCT040
     FM270100 11007KT P6SM BKN200=

USA.gov is the U.S. government's official web portal to all federal, state and local government web resources and services.